Champion — WCZ7631 — position and weather

sailwx.info

Track history (hours):
 
Tides and Currents Weather Stations Pressure Air Temp Water Temp Dewpoint Dewpoint Depression Visibility Wind Speed Wind Dir Waves Ship Positions

Champion

Owner: MC CULLEY MARINE SERVICES INC, FORT PIERCE, FL. More information available from US FCC via Universal Licensing System and Coast Guard Vessel Documentation Center.

Last reported at 2015-May-18 07:22 UTC. Time now 2015-May-22 08:34 UTC.
Position N 27°05' W 079°58'.

Length 20 m; draft 1.7 m.

Type: Towing. MMSI: 367005250.

Date/timePositionNaut miles runAvg speedWind from/ knotsBaromVisibWave heightAir tempDewpointWater temp
2015-May-18 07:22N 27°05' W 079°58'8 9.5
2015-May-18 06:33N 26°57' W 079°59'20 9.0
2015-May-18 04:19N 26°37' W 080°00'7 9.1
2015-May-18 03:31N 26°30' W 080°01'9 9.1
2015-May-18 02:33N 26°21' W 080°01'9 9.0
2015-May-18 01:33N 26°12' W 080°02'9 8.8
2015-May-18 00:33N 26°03' W 080°04'10 9.3
2015-May-17 23:32N 25°54' W 080°04'9 8.7
2015-May-17 22:32N 25°45' W 080°05'  
2015-May-09 14:10N 26°52' W 083°36'8 8.4
2015-May-09 13:15N 26°49' W 083°28'57 8.3
2015-May-09 06:24N 26°30' W 082°28'7 8.1
2015-May-09 05:30N 26°28' W 082°20'8 8.0
2015-May-09 04:33N 26°25' W 082°12'8 7.7
2015-May-09 03:33N 26°24' W 082°04'5 5.2
2015-May-09 02:33N 26°28' W 081°60'6 6.3
2015-May-09 01:33N 26°33' W 081°56'7 6.7
2015-May-09 00:33N 26°39' W 081°52'0 0.0
2015-May-08 23:33N 26°39' W 081°52'3 2.6
2015-May-08 22:33N 26°37' W 081°54'7 6.7
2015-May-08 21:33N 26°42' W 081°49'7 6.8
2015-May-08 20:33N 26°43' W 081°42'38 6.3
2015-May-08 14:29N 26°49' W 080°59'6 6.0
2015-May-08 13:31N 26°47' W 080°53'6 6.0
2015-May-08 12:33N 26°50' W 080°47'8 8.2
2015-May-08 11:33N 26°56' W 080°41'  
Track history (hours):
 
Tides and Currents Weather Stations Pressure Air Temp Water Temp Dewpoint Dewpoint Depression Visibility Wind Speed Wind Dir Waves Ship Positions

Champion

Owner: MC CULLEY MARINE SERVICES INC, FORT PIERCE, FL. More information available from US FCC via Universal Licensing System and Coast Guard Vessel Documentation Center.

Last reported at 2015-May-18 07:22 UTC. Time now 2015-May-22 08:34 UTC.
Position N 27°05' W 079°58'.

Length 20 m; draft 1.7 m.

Type: Towing. MMSI: 367005250.

Date/timePositionNaut miles runAvg speedWind from/ knotsBaromVisibWave heightAir tempDewpointWater temp
2015-May-18 07:22N 27°05' W 079°58'8 9.5
2015-May-18 06:33N 26°57' W 079°59'20 9.0
2015-May-18 04:19N 26°37' W 080°00'7 9.1
2015-May-18 03:31N 26°30' W 080°01'9 9.1
2015-May-18 02:33N 26°21' W 080°01'9 9.0
2015-May-18 01:33N 26°12' W 080°02'9 8.8
2015-May-18 00:33N 26°03' W 080°04'10 9.3
2015-May-17 23:32N 25°54' W 080°04'9 8.7
2015-May-17 22:32N 25°45' W 080°05'  
2015-May-09 14:10N 26°52' W 083°36'8 8.4
2015-May-09 13:15N 26°49' W 083°28'57 8.3
2015-May-09 06:24N 26°30' W 082°28'7 8.1
2015-May-09 05:30N 26°28' W 082°20'8 8.0
2015-May-09 04:33N 26°25' W 082°12'8 7.7
2015-May-09 03:33N 26°24' W 082°04'5 5.2
2015-May-09 02:33N 26°28' W 081°60'6 6.3
2015-May-09 01:33N 26°33' W 081°56'7 6.7
2015-May-09 00:33N 26°39' W 081°52'0 0.0
2015-May-08 23:33N 26°39' W 081°52'3 2.6
2015-May-08 22:33N 26°37' W 081°54'7 6.7
2015-May-08 21:33N 26°42' W 081°49'7 6.8
2015-May-08 20:33N 26°43' W 081°42'38 6.3
2015-May-08 14:29N 26°49' W 080°59'6 6.0
2015-May-08 13:31N 26°47' W 080°53'6 6.0
2015-May-08 12:33N 26°50' W 080°47'8 8.2
2015-May-08 11:33N 26°56' W 080°41'  

Dump ship's entire track history